Time;durP1;ratioP1;P1;durP2;ratioP2;P2;SDS_P1;SDS_P2;PMS_P1;PMS_P2;Temp;Humidity;BMP_temperature;BMP_pressure;BME280_temperature;BME280_humidity;BME280_pressure;Samples;Min_cycle;Max_cycle;Signal;HPM_P1;HPM_P2
2023/10/22 00:02:19;;;;;;;8.38;3.22;;;;;;;19.37;74.86;93014.88;5068842;28;20428;-79
2023/10/22 00:04:47;;;;;;;6.75;2.90;;;;;;;19.40;74.94;92998.72;5064314;28;20049;-79
2023/10/22 00:07:14;;;;;;;7.05;2.88;;;;;;;19.22;74.82;92976.69;5063082;28;20059;-79
2023/10/22 00:09:41;;;;;;;7.00;3.05;;;;;;;19.28;73.88;92980.03;5068666;28;20080;-78
2023/10/22 00:12:08;;;;;;;6.85;2.75;;;;;;;19.23;74.29;92988.66;5064435;28;20408;-79
2023/10/22 00:14:35;;;;;;;9.35;2.55;;;;;;;19.29;74.36;92984.19;5060578;28;20052;-79
2023/10/22 00:17:03;;;;;;;7.93;2.85;;;;;;;19.21;73.72;92981.09;5067448;28;20404;-78
2023/10/22 00:19:30;;;;;;;9.82;3.25;;;;;;;19.23;73.81;92984.25;5064302;28;20080;-80
2023/10/22 00:21:58;;;;;;;7.88;3.20;;;;;;;19.25;74.36;92991.00;5065191;28;20045;-79
2023/10/22 00:24:25;;;;;;;8.82;3.00;;;;;;;19.28;74.36;92982.63;5067826;28;20049;-80
2023/10/22 00:26:51;;;;;;;5.93;2.40;;;;;;;19.25;74.99;92983.94;5068223;28;20056;-80
2023/10/22 00:29:18;;;;;;;10.27;2.97;;;;;;;19.27;75.92;92981.09;5061587;28;20679;-80
2023/10/22 00:31:45;;;;;;;8.75;2.92;;;;;;;19.22;75.84;92980.06;5062347;28;20040;-79
2023/10/22 00:34:12;;;;;;;6.30;2.38;;;;;;;19.20;75.92;92986.56;5063529;28;20096;-81
2023/10/22 00:36:41;;;;;;;12.10;3.25;;;;;;;19.17;76.33;92985.28;5067707;28;20554;-80
2023/10/22 00:39:09;;;;;;;9.52;2.72;;;;;;;19.15;76.58;92970.97;5067522;28;20048;-80
2023/10/22 00:41:36;;;;;;;8.90;3.25;;;;;;;19.12;76.46;92963.72;5065251;28;20110;-80
2023/10/22 00:44:03;;;;;;;11.15;3.30;;;;;;;19.17;76.72;92968.91;5066710;28;20413;-80
2023/10/22 00:46:30;;;;;;;11.77;3.38;;;;;;;19.11;76.29;92959.56;5063909;28;20052;-81
2023/10/22 00:48:58;;;;;;;7.65;2.65;;;;;;;19.08;75.96;92959.03;5063271;28;20049;-80
2023/10/22 00:51:25;;;;;;;6.88;2.88;;;;;;;18.96;76.04;92942.94;5065716;28;20119;-80
2023/10/22 00:53:53;;;;;;;11.52;2.70;;;;;;;19.09;76.35;92963.22;5067440;28;20528;-81
2023/10/22 00:56:22;;;;;;;7.60;2.40;;;;;;;19.07;76.16;92959.34;5065868;28;20045;-80
2023/10/22 00:58:50;;;;;;;8.98;3.28;;;;;;;19.03;75.75;92945.25;5061217;28;20094;-81
2023/10/22 01:01:18;;;;;;;7.40;2.58;;;;;;;19.06;75.74;92953.34;5063881;28;20049;-80
2023/10/22 01:03:44;;;;;;;8.02;2.50;;;;;;;19.06;75.95;92955.94;5067239;28;20048;-81
2023/10/22 01:06:11;;;;;;;8.85;3.22;;;;;;;19.05;75.50;92959.59;5061130;28;20424;-81
2023/10/22 01:08:39;;;;;;;9.43;2.65;;;;;;;19.03;75.94;92955.69;5062648;28;20496;-80
2023/10/22 01:11:07;;;;;;;7.93;2.88;;;;;;;19.09;75.75;92962.44;5064797;28;20098;-81
2023/10/22 01:13:35;;;;;;;7.53;2.42;;;;;;;19.09;75.41;92952.03;5067501;28;20149;-81
2023/10/22 01:16:02;;;;;;;6.57;2.90;;;;;;;19.09;75.52;92957.22;5059860;28;20048;-80
2023/10/22 01:18:29;;;;;;;5.13;2.47;;;;;;;19.07;75.87;92954.13;5061715;28;20062;-81
2023/10/22 01:20:56;;;;;;;9.98;2.97;;;;;;;19.07;75.92;92951.53;5066860;28;20501;-81
2023/10/22 01:23:24;;;;;;;6.28;2.67;;;;;;;19.09;75.22;92950.22;5066775;28;20044;-81
2023/10/22 01:25:51;;;;;;;7.13;3.67;;;;;;;19.03;75.63;92953.88;5063927;28;20052;-81
2023/10/22 01:28:18;;;;;;;11.40;3.20;;;;;;;19.06;75.40;92963.75;5063576;28;20051;-81
2023/10/22 01:30:45;;;;;;;11.50;3.20;;;;;;;19.06;75.42;92960.34;5065849;28;20508;-81
2023/10/22 01:33:12;;;;;;;9.68;3.40;;;;;;;19.09;75.27;92972.84;5064083;28;20076;-81
2023/10/22 01:35:39;;;;;;;6.57;3.63;;;;;;;19.07;75.66;92967.16;5060200;28;20387;-81
2023/10/22 01:38:06;;;;;;;7.05;2.88;;;;;;;19.07;75.38;92967.91;5065701;28;20044;-80
2023/10/22 01:40:35;;;;;;;4.22;2.25;;;;;;;19.06;75.47;92966.34;5060566;28;20079;-81
2023/10/22 01:43:02;;;;;;;8.52;3.38;;;;;;;19.06;75.85;92970.78;5065129;28;20064;-81
2023/10/22 01:45:29;;;;;;;10.95;2.90;;;;;;;18.98;75.79;92969.47;5062599;28;20044;-80
2023/10/22 01:47:56;;;;;;;5.85;2.55;;;;;;;19.01;75.48;92968.16;5066755;28;20049;-81
2023/10/22 01:50:23;;;;;;;5.68;2.30;;;;;;;18.78;75.69;92934.72;5061903;28;20075;-81
2023/10/22 01:52:50;;;;;;;12.70;3.45;;;;;;;18.97;75.65;92957.50;5066485;28;20060;-81
2023/10/22 01:55:17;;;;;;;4.60;2.25;;;;;;;18.97;75.35;92954.91;5065007;28;20044;-82
2023/10/22 01:57:45;;;;;;;5.30;2.22;;;;;;;18.92;75.96;92947.91;5063444;28;20394;-82
2023/10/22 02:00:13;;;;;;;6.25;2.28;;;;;;;18.87;76.73;92947.94;5064405;28;20056;-81
2023/10/22 02:02:40;;;;;;;8.57;2.60;;;;;;;18.82;76.74;92951.34;5057743;28;20049;-81
2023/10/22 02:05:08;;;;;;;9.10;2.92;;;;;;;18.78;76.12;92947.72;5065970;28;20054;-81
2023/10/22 02:07:37;;;;;;;6.88;3.22;;;;;;;18.58;76.52;92926.97;5066723;28;20040;-81
2023/10/22 02:10:04;;;;;;;6.97;2.83;;;;;;;18.74;76.38;92951.13;5063575;28;20056;-80
2023/10/22 02:12:31;;;;;;;11.90;3.03;;;;;;;18.72;76.26;92950.59;5060361;28;20049;-80
2023/10/22 02:14:59;;;;;;;8.02;3.03;;;;;;;18.68;76.15;92950.34;5067188;28;20056;-80
2023/10/22 02:17:26;;;;;;;5.43;2.40;;;;;;;18.61;76.07;92952.47;5064513;28;20048;-80
2023/10/22 02:19:53;;;;;;;7.50;2.15;;;;;;;18.56;76.79;92956.66;5066954;28;20052;-81
2023/10/22 02:22:20;;;;;;;12.95;2.90;;;;;;;18.50;77.01;92936.09;5070040;28;20053;-81
2023/10/22 02:24:46;;;;;;;10.90;4.07;;;;;;;18.42;77.51;92934.84;5067472;28;20056;-82
2023/10/22 02:27:13;;;;;;;8.43;2.53;;;;;;;18.42;77.57;92934.84;5064504;28;20500;-81
2023/10/22 02:29:40;;;;;;;10.05;3.35;;;;;;;18.33;77.37;92932.00;5065594;28;20048;-81
2023/10/22 02:32:09;;;;;;;6.97;2.47;;;;;;;18.29;77.62;92931.00;5069916;28;20049;-80
2023/10/22 02:34:36;;;;;;;8.13;2.75;;;;;;;18.26;77.40;92934.91;5064169;28;20052;-80
2023/10/22 02:37:03;;;;;;;7.63;2.47;;;;;;;18.24;77.33;92938.81;5067378;28;20581;-80
2023/10/22 02:39:30;;;;;;;8.18;3.30;;;;;;;18.18;77.46;92932.06;5069629;28;20055;-81
2023/10/22 02:41:57;;;;;;;6.78;2.28;;;;;;;18.18;77.45;92943.22;5066773;28;20258;-80
2023/10/22 02:44:24;;;;;;;8.85;3.10;;;;;;;18.19;77.57;92944.00;5064266;28;20880;-80
2023/10/22 02:46:51;;;;;;;10.85;2.97;;;;;;;18.12;77.81;92932.06;5063998;28;20060;-80
2023/10/22 02:49:19;;;;;;;6.80;2.80;;;;;;;18.07;77.29;92919.09;5066828;28;20051;-80
2023/10/22 02:51:48;;;;;;;6.93;2.20;;;;;;;18.17;77.40;92941.66;5067848;28;20061;-80
2023/10/22 02:54:14;;;;;;;6.85;2.42;;;;;;;18.14;77.72;92934.38;5062982;28;20862;-80
2023/10/22 02:56:42;;;;;;;7.03;3.10;;;;;;;18.14;77.78;92937.78;5065902;28;20045;-83
2023/10/22 02:59:09;;;;;;;8.55;2.47;;;;;;;18.09;78.00;92940.38;5069173;28;20145;-84
2023/10/22 03:01:36;;;;;;;10.90;2.95;;;;;;;18.10;77.67;92941.16;5066099;28;20051;-86
2023/10/22 03:04:03;;;;;;;5.88;2.40;;;;;;;18.02;77.35;92932.81;5068344;28;20526;-88
2023/10/22 03:06:31;;;;;;;9.68;3.03;;;;;;;17.98;78.08;92918.81;5069477;28;20496;-83
2023/10/22 03:08:58;;;;;;;8.88;2.40;;;;;;;18.11;77.91;92934.94;5065046;28;20056;-82
2023/10/22 03:11:25;;;;;;;5.00;2.35;;;;;;;18.02;77.96;92935.41;5069009;28;20057;-81
2023/10/22 03:13:52;;;;;;;9.35;3.28;;;;;;;17.90;77.83;92914.94;5069399;28;20048;-82
2023/10/22 03:16:19;;;;;;;7.50;2.33;;;;;;;18.02;78.27;92943.22;5069492;28;20064;-81
2023/10/22 03:18:47;;;;;;;8.00;2.67;;;;;;;18.04;78.37;92937.75;5065028;28;20572;-81
2023/10/22 03:21:17;;;;;;;6.68;2.63;;;;;;;18.01;78.69;92939.06;5068509;28;20053;-82
2023/10/22 03:23:45;;;;;;;7.47;3.05;;;;;;;17.87;78.82;92938.81;5066866;28;20053;-82
2023/10/22 03:26:15;;;;;;;6.78;3.13;;;;;;;17.94;79.44;92932.56;5064000;28;20060;-82
2023/10/22 03:28:42;;;;;;;8.45;2.65;;;;;;;17.93;79.02;92936.22;5063663;28;20114;-82
2023/10/22 03:31:09;;;;;;;8.48;2.70;;;;;;;17.94;79.34;92927.38;5062132;28;20052;-82
2023/10/22 03:33:37;;;;;;;10.68;3.00;;;;;;;17.87;79.42;92918.03;5062064;28;20538;-82
2023/10/22 03:36:05;;;;;;;6.95;2.58;;;;;;;17.87;80.19;92912.84;5068452;28;20044;-81
2023/10/22 03:38:32;;;;;;;9.90;3.33;;;;;;;17.82;80.43;92910.25;5068445;28;20052;-80
2023/10/22 03:41:02;;;;;;;9.68;3.80;;;;;;;17.83;80.78;92917.00;5065629;28;20068;-81
2023/10/22 03:43:29;;;;;;;9.23;3.17;;;;;;;17.81;80.60;92916.50;5065688;28;20051;-81
2023/10/22 03:45:56;;;;;;;7.38;2.75;;;;;;;17.71;81.12;92906.09;5062685;28;20527;-81
2023/10/22 03:48:23;;;;;;;9.02;3.03;;;;;;;17.79;81.19;92918.56;5064495;28;20044;-83
2023/10/22 03:50:50;;;;;;;7.50;3.30;;;;;;;17.72;81.61;92900.66;5061637;28;20060;-82
2023/10/22 03:53:17;;;;;;;8.32;3.47;;;;;;;17.69;81.34;92898.56;5065761;28;20497;-82
2023/10/22 03:55:44;;;;;;;10.15;3.30;;;;;;;17.85;80.95;92927.91;5066464;28;20943;-82
2023/10/22 03:58:13;;;;;;;9.05;2.92;;;;;;;17.75;81.27;92912.34;5068578;28;20049;-83
2023/10/22 04:00:39;;;;;;;9.70;4.05;;;;;;;17.82;81.11;92922.47;5066501;28;20040;-82
2023/10/22 04:03:06;;;;;;;9.88;3.35;;;;;;;17.84;81.46;92920.38;5067127;28;20413;-82
2023/10/22 04:05:34;;;;;;;5.57;2.85;;;;;;;17.84;81.33;92917.78;5063050;28;20075;-83
2023/10/22 04:08:00;;;;;;;9.80;3.00;;;;;;;17.83;81.38;92917.00;5065279;28;20045;-83
2023/10/22 04:10:27;;;;;;;7.25;3.00;;;;;;;17.82;81.36;92912.84;5063702;28;20068;-82
2023/10/22 04:12:54;;;;;;;6.95;2.97;;;;;;;17.83;81.18;92932.59;5064230;28;20400;-83
2023/10/22 04:15:23;;;;;;;9.77;3.08;;;;;;;17.58;80.63;92892.59;5068271;28;20087;-81
2023/10/22 04:17:50;;;;;;;6.32;2.88;;;;;;;17.84;80.86;92934.16;5067952;28;20049;-81
2023/10/22 04:20:17;;;;;;;10.73;3.58;;;;;;;17.84;80.61;92939.34;5064589;28;20437;-81
2023/10/22 04:22:44;;;;;;;8.13;3.22;;;;;;;17.77;80.39;92931.81;5063374;28;20044;-80
2023/10/22 04:25:12;;;;;;;6.13;2.90;;;;;;;17.84;80.43;92947.16;5067388;28;20048;-82
2023/10/22 04:27:39;;;;;;;8.20;2.85;;;;;;;17.76;79.69;92935.47;5068029;28;20071;-81
2023/10/22 04:30:07;;;;;;;8.68;2.63;;;;;;;17.84;80.68;92952.34;5065747;28;20059;-83
2023/10/22 04:32:36;;;;;;;13.02;3.80;;;;;;;17.81;80.57;92954.69;5064193;28;20048;-82
2023/10/22 04:35:05;;;;;;;11.35;3.17;;;;;;;17.79;81.03;92960.16;5063416;28;20489;-83
2023/10/22 04:37:32;;;;;;;9.05;3.42;;;;;;;17.80;80.99;92960.91;5067899;28;20040;-82
2023/10/22 04:39:59;;;;;;;7.00;2.83;;;;;;;17.77;81.25;92959.59;5065857;28;20049;-83
2023/10/22 04:42:27;;;;;;;11.40;3.45;;;;;;;17.62;81.10;92945.59;5066218;28;20044;-82
2023/10/22 04:44:54;;;;;;;9.18;3.38;;;;;;;17.62;81.71;92953.38;5065361;28;20527;-83
2023/10/22 04:47:21;;;;;;;11.02;4.40;;;;;;;17.70;81.66;92961.69;5067457;28;20040;-83
2023/10/22 04:49:51;;;;;;;7.97;3.65;;;;;;;17.68;82.30;92976.78;5067106;28;20508;-82
2023/10/22 04:52:27;;;;;;;10.95;3.95;;;;;;;17.64;82.61;92973.91;5064696;28;20052;-82
2023/10/22 04:54:54;;;;;;;12.70;2.90;;;;;;;17.60;82.51;92967.69;5067311;28;20051;-81
2023/10/22 04:57:21;;;;;;;6.22;3.17;;;;;;;17.62;82.99;92981.97;5064888;28;20055;-81
2023/10/22 04:59:47;;;;;;;11.20;3.67;;;;;;;17.59;83.35;92979.88;5067182;28;20052;-81
2023/10/22 05:02:14;;;;;;;6.90;2.58;;;;;;;17.56;83.01;92975.22;5066627;28;20055;-81
2023/10/22 05:04:41;;;;;;;8.82;2.78;;;;;;;17.60;82.83;92986.63;5064699;28;20051;-81
2023/10/22 05:07:09;;;;;;;11.23;4.18;;;;;;;17.58;83.56;92987.91;5064350;28;20056;-82
2023/10/22 05:09:36;;;;;;;11.05;3.17;;;;;;;17.57;83.22;92983.75;5063708;28;20045;-82
2023/10/22 05:12:03;;;;;;;8.38;2.85;;;;;;;17.59;83.51;92995.44;5065978;28;20056;-82
2023/10/22 05:14:30;;;;;;;10.98;3.00;;;;;;;17.57;83.44;92987.16;5066984;28;20036;-81
2023/10/22 05:16:57;;;;;;;8.35;3.58;;;;;;;17.59;83.64;92986.91;5064711;28;20056;-81
2023/10/22 05:19:24;;;;;;;14.10;4.03;;;;;;;17.54;84.22;92981.69;5065804;28;20838;-80
2023/10/22 05:21:52;;;;;;;7.70;3.20;;;;;;;17.57;83.74;92978.56;5066970;28;20051;-81
2023/10/22 05:24:20;;;;;;;8.65;4.05;;;;;;;17.60;83.50;92978.06;5072243;28;20048;-80
2023/10/22 05:26:47;;;;;;;9.95;3.15;;;;;;;17.59;83.50;92985.06;5069830;28;20044;-81
2023/10/22 05:29:13;;;;;;;7.63;3.30;;;;;;;17.65;83.19;92992.84;5072313;28;20051;-81
2023/10/22 05:31:40;;;;;;;10.20;2.90;;;;;;;17.70;83.61;92991.06;5072386;28;21132;-82
2023/10/22 05:34:08;;;;;;;7.28;3.42;;;;;;;17.74;83.27;92992.06;5073982;28;20044;-81
2023/10/22 05:36:35;;;;;;;13.98;3.55;;;;;;;17.85;82.61;92987.69;5075218;28;20519;-81
2023/10/22 05:39:03;;;;;;;11.20;2.90;;;;;;;17.91;82.40;92996.22;5073629;28;20052;-80
2023/10/22 05:41:32;;;;;;;12.02;3.70;;;;;;;17.93;82.07;92994.19;5065327;28;20880;-80
2023/10/22 05:44:02;;;;;;;11.50;4.28;;;;;;;17.94;82.77;92998.31;5065667;28;20047;-82
2023/10/22 05:46:29;;;;;;;14.52;4.15;;;;;;;18.03;82.08;93014.16;5066565;28;20059;-81
2023/10/22 05:48:56;;;;;;;10.38;3.95;;;;;;;18.02;82.18;93030.81;5066329;28;20045;-81
2023/10/22 05:51:24;;;;;;;10.07;3.58;;;;;;;18.09;82.38;93033.19;5065470;28;20048;-81
2023/10/22 05:53:50;;;;;;;10.63;3.53;;;;;;;17.97;82.69;93028.97;5066079;28;20385;-80
2023/10/22 05:56:17;;;;;;;9.25;3.90;;;;;;;18.09;82.41;93049.53;5065458;28;20469;-81
2023/10/22 05:58:46;;;;;;;13.45;3.90;;;;;;;18.12;83.25;93045.66;5063011;28;20041;-80
2023/10/22 06:01:14;;;;;;;34.22;13.38;;;;;;;18.15;83.65;93055.53;5066570;28;20048;-80
2023/10/22 06:03:40;;;;;;;26.67;12.32;;;;;;;18.15;82.52;93048.50;5067239;28;20041;-83
2023/10/22 06:06:07;;;;;;;12.52;5.90;;;;;;;18.20;82.13;93055.53;5068459;28;20070;-81
2023/10/22 06:08:34;;;;;;;15.40;4.47;;;;;;;18.05;81.03;93032.88;5068346;28;20036;-81
2023/10/22 06:11:04;;;;;;;10.65;3.35;;;;;;;18.21;79.51;93053.69;5065213;28;20052;-81
2023/10/22 06:13:31;;;;;;;11.10;3.50;;;;;;;18.07;79.43;93035.25;5066262;28;20044;-81
2023/10/22 06:16:00;;;;;;;7.00;3.33;;;;;;;18.22;78.37;93052.66;5065056;28;20518;-82
2023/10/22 06:18:26;;;;;;;8.52;3.10;;;;;;;18.24;77.84;93064.34;5064252;28;20060;-80
2023/10/22 06:20:53;;;;;;;6.97;3.10;;;;;;;18.29;77.74;93072.16;5064723;28;20057;-80
2023/10/22 06:23:21;;;;;;;9.40;2.90;;;;;;;18.33;77.20;93071.66;5065876;28;20044;-81
2023/10/22 06:25:48;;;;;;;11.02;2.92;;;;;;;18.35;77.49;93074.75;5064159;28;20068;-81
2023/10/22 06:28:15;;;;;;;6.88;3.10;;;;;;;18.43;77.30;93069.81;5066789;28;20079;-81
2023/10/22 06:30:42;;;;;;;7.32;2.53;;;;;;;18.52;76.91;93075.25;5064943;28;20497;-79
2023/10/22 06:33:10;;;;;;;9.93;3.40;;;;;;;18.63;76.76;93080.44;5065624;28;20040;-81
2023/10/22 06:35:37;;;;;;;11.50;3.05;;;;;;;18.72;76.63;93084.06;5066582;28;20132;-80
2023/10/22 06:38:04;;;;;;;7.95;2.75;;;;;;;18.79;76.30;93087.19;5063357;28;20748;-81
2023/10/22 06:40:34;;;;;;;13.55;3.92;;;;;;;18.89;75.68;93088.97;5063423;28;20542;-80
2023/10/22 06:43:01;;;;;;;6.22;2.88;;;;;;;18.99;75.61;93082.97;5064496;28;20062;-81
2023/10/22 06:45:28;;;;;;;5.50;3.08;;;;;;;19.11;75.27;93077.47;5064133;28;20045;-81
2023/10/22 06:47:56;;;;;;;9.88;3.50;;;;;;;19.26;74.74;93081.88;5063443;28;20503;-81
2023/10/22 06:50:24;;;;;;;8.70;4.20;;;;;;;19.36;75.02;93086.25;5063634;28;20493;-80
2023/10/22 06:52:51;;;;;;;7.00;3.13;;;;;;;19.49;74.63;93080.44;5068010;28;20053;-80
2023/10/22 06:55:18;;;;;;;8.35;3.17;;;;;;;19.36;73.72;93055.75;5068626;28;20614;-80
2023/10/22 06:57:46;;;;;;;14.32;3.08;;;;;;;19.65;73.73;93082.97;5070624;28;20552;-80
2023/10/22 07:00:14;;;;;;;10.13;3.15;;;;;;;19.81;73.30;93096.69;5069983;28;20040;-80
2023/10/22 07:02:41;;;;;;;11.32;2.85;;;;;;;19.84;72.98;93080.53;5071086;28;20041;-79
2023/10/22 07:05:10;;;;;;;8.73;3.55;;;;;;;20.00;72.48;93086.44;5069095;28;21079;-81
2023/10/22 07:07:41;;;;;;;10.55;2.83;;;;;;;19.94;72.75;93065.88;5067067;28;20587;-81
2023/10/22 07:10:09;;;;;;;7.45;3.00;;;;;;;19.94;72.40;93069.25;5068360;28;20041;-80
2023/10/22 07:12:36;;;;;;;10.50;2.95;;;;;;;20.05;72.33;93077.81;5070978;28;20044;-80
2023/10/22 07:15:03;;;;;;;7.63;2.65;;;;;;;20.07;71.82;93073.09;5069750;28;20044;-80
2023/10/22 07:17:30;;;;;;;8.93;2.95;;;;;;;20.18;71.59;93084.22;5071943;28;20044;-80
2023/10/22 07:19:57;;;;;;;11.52;3.30;;;;;;;20.28;71.96;93080.78;5072985;28;20110;-81
2023/10/22 07:22:23;;;;;;;12.02;3.28;;;;;;;20.48;71.13;93086.84;5072554;28;20048;-80
2023/10/22 07:24:52;;;;;;;10.43;3.95;;;;;;;20.59;70.85;93069.28;5072256;28;20610;-81
2023/10/22 07:27:19;;;;;;;10.10;3.35;;;;;;;20.79;70.07;93076.13;5072778;28;20052;-78
2023/10/22 07:29:45;;;;;;;6.30;2.72;;;;;;;20.92;69.72;93075.50;5072804;28;20071;-79
2023/10/22 07:32:12;;;;;;;16.58;5.50;;;;;;;20.92;69.26;93072.88;5073147;28;20048;-79
2023/10/22 07:34:39;;;;;;;12.60;3.20;;;;;;;20.98;69.11;93072.84;5069564;28;20036;-79
2023/10/22 07:37:06;;;;;;;9.50;3.08;;;;;;;20.99;69.18;93063.94;5072114;28;20048;-79
2023/10/22 07:39:33;;;;;;;8.90;3.08;;;;;;;21.05;69.16;93074.06;5071721;28;20511;-79
2023/10/22 07:42:01;;;;;;;7.70;2.60;;;;;;;21.03;69.19;93070.16;5069786;28;20056;-79
2023/10/22 07:44:28;;;;;;;8.40;3.30;;;;;;;21.09;69.10;93058.59;5072189;28;20100;-81
2023/10/22 07:46:55;;;;;;;11.55;3.40;;;;;;;21.28;68.79;93070.94;5072324;28;20059;-81
2023/10/22 07:49:22;;;;;;;13.80;3.00;;;;;;;21.50;68.06;93086.06;5071475;28;20512;-81
2023/10/22 07:51:48;;;;;;;9.70;2.65;;;;;;;21.57;67.07;93072.66;5072727;28;20055;-80
2023/10/22 07:54:15;;;;;;;5.82;2.45;;;;;;;21.82;67.16;93076.00;5073494;28;20059;-81
2023/10/22 07:56:42;;;;;;;9.88;3.38;;;;;;;21.99;65.37;93078.13;5070494;28;20052;-78
2023/10/22 07:59:10;;;;;;;8.27;3.20;;;;;;;22.11;64.89;93067.22;5071063;28;20617;-81
2023/10/22 08:01:37;;;;;;;7.18;2.90;;;;;;;22.26;64.07;93074.06;5074307;28;20058;-80
2023/10/22 08:04:05;;;;;;;12.07;3.00;;;;;;;22.36;63.86;93068.66;5073121;28;20849;-81
2023/10/22 08:06:32;;;;;;;8.90;2.58;;;;;;;22.46;63.36;93065.09;5070769;28;20058;-79
2023/10/22 08:08:59;;;;;;;5.32;2.80;;;;;;;22.50;63.15;93068.69;5072414;28;20055;-80
2023/10/22 08:11:25;;;;;;;9.48;3.08;;;;;;;22.55;62.33;93081.72;5074881;28;20055;-81
2023/10/22 08:13:52;;;;;;;8.63;2.70;;;;;;;22.50;62.21;93073.16;5069844;28;20043;-80
2023/10/22 08:16:20;;;;;;;10.57;2.78;;;;;;;22.58;63.04;93075.13;5073241;28;20400;-83
2023/10/22 08:18:47;;;;;;;10.23;2.53;;;;;;;22.55;62.51;93071.25;5086340;28;20084;-81
2023/10/22 08:21:14;;;;;;;7.45;2.90;;;;;;;22.63;62.56;93072.44;5069299;28;20094;-81
2023/10/22 08:23:41;;;;;;;19.50;4.32;;;;;;;22.62;62.25;93065.63;5074953;28;20051;-80
2023/10/22 08:26:08;;;;;;;8.65;3.15;;;;;;;22.62;62.10;93064.84;5071242;28;20411;-80
2023/10/22 08:28:35;;;;;;;12.98;3.97;;;;;;;22.66;62.20;93071.06;5070450;28;20488;-80
2023/10/22 08:31:02;;;;;;;10.40;3.30;;;;;;;22.71;62.52;93060.50;5075855;28;20052;-80
2023/10/22 08:33:31;;;;;;;7.13;3.33;;;;;;;22.68;61.70;93058.50;5071674;28;20052;-79
2023/10/22 08:36:04;;;;;;;10.43;2.67;;;;;;;22.71;61.52;93063.13;5075659;28;20056;-81
2023/10/22 08:38:31;;;;;;;10.23;2.88;;;;;;;22.63;60.94;93043.63;5080391;28;20115;-82
2023/10/22 08:41:00;;;;;;;5.32;3.20;;;;;;;22.74;61.16;93053.91;5073872;28;20516;-79
2023/10/22 08:43:31;;;;;;;8.18;2.72;;;;;;;22.74;61.11;93053.91;5067211;28;20044;-78
2023/10/22 08:45:59;;;;;;;10.05;2.85;;;;;;;22.75;60.63;93058.88;5070046;28;20051;-78
2023/10/22 08:48:26;;;;;;;9.25;2.53;;;;;;;22.77;60.50;93066.44;5075417;28;20048;-79
2023/10/22 08:50:57;;;;;;;6.35;2.45;;;;;;;22.85;60.60;93059.75;5074310;28;20055;-79
2023/10/22 08:53:24;;;;;;;9.52;2.80;;;;;;;22.89;60.59;93050.25;5071911;28;20059;-81
2023/10/22 08:55:51;;;;;;;6.10;3.30;;;;;;;23.18;60.75;93062.25;5068532;28;20458;-81
2023/10/22 08:58:21;;;;;;;7.75;2.55;;;;;;;23.31;59.56;93060.69;5068181;28;20052;-79
2023/10/22 09:00:49;;;;;;;9.23;3.28;;;;;;;23.46;58.72;93051.78;5072869;28;20503;-80
2023/10/22 09:03:17;;;;;;;5.38;2.55;;;;;;;23.61;57.90;93056.69;5069742;28;20063;-80
2023/10/22 09:05:45;;;;;;;7.35;2.63;;;;;;;23.68;57.63;93058.91;5076651;28;20049;-80
2023/10/22 09:08:13;;;;;;;7.88;2.75;;;;;;;23.75;57.78;93055.91;5068668;28;20048;-81
2023/10/22 09:10:40;;;;;;;7.30;2.42;;;;;;;23.68;56.78;93052.88;5072339;28;20570;-80
2023/10/22 09:13:15;;;;;;;9.68;2.47;;;;;;;23.75;56.51;93053.28;5073589;28;20069;-80
2023/10/22 09:15:45;;;;;;;10.23;2.70;;;;;;;23.61;56.61;93059.31;5072965;28;20048;-78
2023/10/22 09:18:12;;;;;;;7.55;3.38;;;;;;;23.78;56.54;93060.53;5075553;28;20059;-79
2023/10/22 09:20:39;;;;;;;10.27;2.67;;;;;;;23.79;56.59;93064.72;5069010;28;20044;-81
2023/10/22 09:23:16;;;;;;;10.95;2.80;;;;;;;23.71;55.85;93044.44;5068562;28;20052;-80
2023/10/22 09:25:43;;;;;;;12.25;2.58;;;;;;;23.78;55.63;93067.66;5073975;28;20044;-80
2023/10/22 09:28:15;;;;;;;8.68;2.65;;;;;;;23.78;55.42;93057.91;5068072;28;20053;-79
2023/10/22 09:30:42;;;;;;;7.55;2.17;;;;;;;23.69;55.45;93036.09;5065259;28;20048;-79
2023/10/22 09:33:09;;;;;;;5.50;2.25;;;;;;;23.94;55.16;93052.34;5085192;28;20492;-78
2023/10/22 09:35:37;;;;;;;7.65;2.10;;;;;;;23.99;55.08;93049.59;5066703;28;21069;-80
2023/10/22 09:38:03;;;;;;;6.97;2.72;;;;;;;24.00;54.70;93043.28;5085317;28;20063;-79
2023/10/22 09:40:34;;;;;;;10.43;2.95;;;;;;;23.95;54.74;93051.25;5069812;28;20459;-79
2023/10/22 09:43:02;;;;;;;8.15;2.70;;;;;;;23.74;54.77;93034.13;5085209;28;20538;-81
2023/10/22 09:45:31;;;;;;;8.18;2.90;;;;;;;23.74;54.97;93044.63;5085212;28;20098;-78
2023/10/22 09:48:06;;;;;;;9.13;2.40;;;;;;;23.77;56.02;93027.53;5075606;28;20055;-80
2023/10/22 09:50:39;;;;;;;11.17;3.10;;;;;;;23.95;55.67;93043.38;5077237;28;20508;-79
2023/10/22 09:53:10;;;;;;;10.30;2.47;;;;;;;23.97;55.38;93028.13;5076572;28;20309;-79
2023/10/22 09:55:40;;;;;;;9.63;2.85;;;;;;;24.09;54.70;93022.38;5072400;28;20063;-77
2023/10/22 09:58:16;;;;;;;9.43;2.65;;;;;;;24.24;53.96;93023.84;5065588;28;20110;-80
2023/10/22 10:00:43;;;;;;;7.53;2.72;;;;;;;24.28;53.10;93009.84;5081029;28;20044;-78
2023/10/22 10:03:10;;;;;;;7.68;2.20;;;;;;;24.34;53.11;93004.47;5078198;28;20071;-79
2023/10/22 10:05:37;;;;;;;11.32;2.72;;;;;;;24.42;52.68;93019.47;5073309;28;20052;-77
2023/10/22 10:08:05;;;;;;;9.90;3.30;;;;;;;24.46;52.36;92986.28;5077132;28;20040;-80
2023/10/22 10:10:32;;;;;;;13.23;3.72;;;;;;;24.58;51.66;93001.47;5067558;28;20055;-78
2023/10/22 10:13:01;;;;;;;9.00;3.20;;;;;;;24.66;51.53;93008.59;5067169;28;20064;-78
2023/10/22 10:15:32;;;;;;;8.18;2.88;;;;;;;24.63;52.06;93016.31;5074621;28;20052;-79
2023/10/22 10:18:00;;;;;;;8.48;2.53;;;;;;;24.61;51.62;93008.75;5067652;28;20052;-78
2023/10/22 10:20:30;;;;;;;7.70;2.50;;;;;;;24.56;51.83;93001.00;5068591;28;20424;-78
2023/10/22 10:23:05;;;;;;;10.05;2.30;;;;;;;24.57;51.08;92996.53;5081412;28;20055;-79
2023/10/22 10:25:33;;;;;;;8.60;2.50;;;;;;;24.47;51.53;92985.22;5081217;28;20504;-78
2023/10/22 10:28:07;;;;;;;8.10;2.70;;;;;;;24.51;51.06;92974.88;5070691;28;20056;-78
2023/10/22 10:30:34;;;;;;;10.32;2.53;;;;;;;24.65;51.54;92980.81;5069325;28;20052;-78
2023/10/22 10:33:01;;;;;;;10.40;3.33;;;;;;;24.78;51.46;92973.91;5071167;28;20428;-78
2023/10/22 10:35:28;;;;;;;14.63;3.40;;;;;;;24.93;51.62;92977.97;5071505;28;20055;-77
2023/10/22 10:38:18;;;;;;;8.25;2.63;;;;;;;24.90;50.51;92977.81;5078135;28;20507;-78
2023/10/22 10:40:46;;;;;;;11.07;3.22;;;;;;;24.80;50.22;92987.50;5080748;28;20043;-78
2023/10/22 10:43:15;;;;;;;6.13;2.35;;;;;;;24.91;50.33;92974.09;5076842;28;20951;-79
2023/10/22 10:46:15;;;;;;;7.75;2.45;;;;;;;24.94;50.82;92969.00;5071769;28;20052;-78
2023/10/22 10:48:47;;;;;;;12.27;2.70;;;;;;;25.15;50.70;92972.91;5072257;28;20059;-79
2023/10/22 10:51:19;;;;;;;15.32;3.10;;;;;;;25.06;50.12;92957.91;5071547;28;20076;-79
2023/10/22 10:54:17;;;;;;;8.60;2.40;;;;;;;25.21;49.92;92961.16;5071252;28;20528;-81
2023/10/22 10:56:55;;;;;;;14.25;3.20;;;;;;;25.26;50.06;92963.66;5017630;28;20045;-80
2023/10/22 10:59:30;;;;;;;13.57;3.63;;;;;;;25.35;50.15;92964.44;5075696;28;20083;-78
2023/10/22 11:02:02;;;;;;;19.58;2.70;;;;;;;25.43;50.35;92957.63;5078507;28;20059;-79
2023/10/22 11:04:29;;;;;;;15.20;3.45;;;;;;;25.50;49.56;92959.78;5071053;28;20422;-79
2023/10/22 11:06:56;;;;;;;14.75;4.22;;;;;;;25.66;49.78;92956.72;5070719;28;20056;-78
2023/10/22 11:09:24;;;;;;;12.50;3.15;;;;;;;25.75;49.69;92950.34;5069965;28;20040;-77
2023/10/22 11:12:03;;;;;;;12.40;2.95;;;;;;;25.68;49.46;92949.31;5069224;28;20045;-77
2023/10/22 11:14:33;;;;;;;8.05;2.70;;;;;;;25.75;48.96;92954.88;5069536;28;20048;-77
2023/10/22 11:17:00;;;;;;;11.43;3.40;;;;;;;25.80;49.02;92949.44;5069731;28;20524;-79
2023/10/22 11:19:29;;;;;;;13.90;2.72;;;;;;;25.94;49.38;92951.88;5072696;28;20048;-78
2023/10/22 11:21:59;;;;;;;18.42;4.35;;;;;;;25.63;49.64;92912.63;5070495;28;20052;-76
2023/10/22 11:24:34;;;;;;;20.92;3.13;;;;;;;25.92;49.46;92945.41;5067820;28;20076;-77
2023/10/22 11:27:03;;;;;;;12.82;3.65;;;;;;;25.91;49.31;92947.25;5071521;28;20045;-78
2023/10/22 11:29:39;;;;;;;11.15;3.42;;;;;;;25.69;49.08;92927.94;5072991;28;20118;-79
2023/10/22 11:32:11;;;;;;;;;;;;;;;25.85;49.19;92949.28;5075465;28;20045;-79
2023/10/22 11:34:46;;;;;;;9.88;3.75;;;;;;;25.86;49.35;92942.94;5070875;28;19920;-78
2023/10/22 11:37:13;;;;;;;16.77;3.50;;;;;;;25.79;49.36;92944.47;5072351;28;20048;-79